Time;durP1;ratioP1;P1;durP2;ratioP2;P2;SDS_P1;SDS_P2;PMS_P1;PMS_P2;Temp;Humidity;BMP_temperature;BMP_pressure;BME280_temperature;BME280_humidity;BME280_pressure;Samples;Min_cycle;Max_cycle;Signal;HPM_P1;HPM_P2
2021/08/25 00:00:36;;;;;;;6.53;2.78;;;;;;;;;;5011336;28;20390;-82
2021/08/25 00:03:02;;;;;;;6.28;2.67;;;;;;;;;;5011524;28;20017;-83
2021/08/25 00:05:27;;;;;;;6.10;2.63;;;;;;;;;;5011855;28;20026;-83
2021/08/25 00:07:52;;;;;;;6.43;2.75;;;;;;;;;;5011039;28;20482;-83
2021/08/25 00:10:18;;;;;;;7.60;3.10;;;;;;;;;;5015340;28;20029;-83
2021/08/25 00:12:43;;;;;;;5.55;2.75;;;;;;;;;;5016305;28;20366;-83
2021/08/25 00:15:08;;;;;;;7.07;2.90;;;;;;;;;;5048489;28;20030;-83
2021/08/25 00:17:34;;;;;;;6.15;3.10;;;;;;;;;;5014844;28;20386;-83
2021/08/25 00:19:59;;;;;;;4.18;2.17;;;;;;;;;;5021277;28;20069;-83
2021/08/25 00:22:24;;;;;;;6.72;2.60;;;;;;;;;;5014816;28;20032;-83
2021/08/25 00:24:50;;;;;;;5.72;2.60;;;;;;;;;;5014007;28;20060;-83
2021/08/25 00:27:15;;;;;;;6.18;3.10;;;;;;;;;;5015888;28;20040;-83
2021/08/25 00:29:40;;;;;;;5.68;2.47;;;;;;;;;;5015630;28;20026;-83
2021/08/25 00:32:06;;;;;;;5.75;2.65;;;;;;;;;;5021668;28;20025;-83
2021/08/25 00:34:31;;;;;;;5.80;2.63;;;;;;;;;;5014557;28;20394;-83
2021/08/25 00:36:56;;;;;;;4.40;2.30;;;;;;;;;;5014916;28;20033;-83
2021/08/25 00:39:21;;;;;;;6.28;3.08;;;;;;;;;;5014416;28;20041;-83
2021/08/25 00:41:47;;;;;;;5.60;2.50;;;;;;;;;;5015424;28;20029;-82
2021/08/25 00:44:12;;;;;;;7.45;2.53;;;;;;;;;;5014627;28;20033;-83
2021/08/25 00:46:38;;;;;;;9.20;3.15;;;;;;;;;;5022982;28;20030;-83
2021/08/25 00:49:03;;;;;;;5.72;2.70;;;;;;;;;;5014066;28;20149;-83
2021/08/25 00:51:29;;;;;;;5.30;2.60;;;;;;;;;;5013995;28;20080;-83
2021/08/25 00:53:54;;;;;;;7.78;2.53;;;;;;;;;;5013589;28;20010;-83
2021/08/25 00:56:20;;;;;;;10.20;2.83;;;;;;;;;;5014735;28;20064;-83
2021/08/25 00:58:45;;;;;;;5.88;2.70;;;;;;;;;;5046580;28;20014;-83
2021/08/25 01:01:15;;;;;;;6.30;2.58;;;;;;;;;;5001632;28;20025;-82
2021/08/25 01:03:43;;;;;;;5.45;2.72;;;;;;;;;;5007558;28;20030;-83
2021/08/25 01:06:09;;;;;;;6.20;2.83;;;;;;;;;;5015353;28;20033;-83
2021/08/25 01:08:34;;;;;;;5.95;2.90;;;;;;;;;;5015033;28;20022;-83
2021/08/25 01:11:07;;;;;;;8.30;2.50;;;;;;;;;;5013630;28;20034;-83
2021/08/25 01:13:32;;;;;;;5.47;3.03;;;;;;;;;;5013912;28;20065;-83
2021/08/25 01:15:58;;;;;;;5.07;2.70;;;;;;;;;;5013986;28;20018;-83
2021/08/25 01:18:23;;;;;;;6.03;3.03;;;;;;;;;;5013143;28;20385;-83
2021/08/25 01:20:48;;;;;;;7.22;2.55;;;;;;;;;;5012932;28;20111;-83
2021/08/25 01:23:15;;;;;;;6.90;2.72;;;;;;;;;;5013133;28;20112;-83
2021/08/25 01:25:41;;;;;;;8.57;2.72;;;;;;;;;;5014905;28;20028;-83
2021/08/25 01:28:07;;;;;;;4.97;2.30;;;;;;;;;;5014061;28;20456;-83
2021/08/25 01:30:33;;;;;;;7.78;2.63;;;;;;;;;;5014008;28;20016;-83
2021/08/25 01:32:59;;;;;;;6.70;2.95;;;;;;;;;;5013123;28;20033;-83
2021/08/25 01:35:38;;;;;;;7.85;3.15;;;;;;;;;;5013262;28;20014;-83
2021/08/25 01:38:03;;;;;;;9.15;3.15;;;;;;;;;;5014854;28;20049;-83
2021/08/25 01:40:30;;;;;;;6.25;2.85;;;;;;;;;;5013893;28;20052;-82
2021/08/25 01:42:55;;;;;;;5.97;2.83;;;;;;;;;;5044971;28;20050;-83
2021/08/25 01:45:20;;;;;;;11.32;3.25;;;;;;;;;;5011516;28;20409;-82
2021/08/25 01:47:45;;;;;;;8.55;3.03;;;;;;;;;;5012030;28;20026;-83
2021/08/25 01:50:12;;;;;;;9.82;2.97;;;;;;;;;;5011884;28;20029;-83
2021/08/25 01:52:37;;;;;;;5.78;3.17;;;;;;;;;;5013039;28;20106;-83
2021/08/25 01:55:02;;;;;;;9.60;2.83;;;;;;;;;;5013126;28;20026;-82
2021/08/25 01:57:27;;;;;;;7.57;3.20;;;;;;;;;;5001037;28;20025;-83
2021/08/25 01:59:53;;;;;;;8.15;2.92;;;;;;;;;;5016032;28;20491;-82
2021/08/25 02:02:18;;;;;;;7.22;3.50;;;;;;;;;;5017466;28;20064;-82
2021/08/25 02:04:43;;;;;;;7.10;3.05;;;;;;;;;;5014654;28;20014;-83
2021/08/25 02:07:08;;;;;;;6.00;3.10;;;;;;;;;;5012519;28;20026;-83
2021/08/25 02:09:34;;;;;;;6.07;3.20;;;;;;;;;;5012537;28;20014;-82
2021/08/25 02:11:59;;;;;;;5.28;3.00;;;;;;;;;;5012596;28;20021;-82
2021/08/25 02:14:24;;;;;;;8.20;3.58;;;;;;;;;;5012553;28;20049;-82
2021/08/25 02:16:49;;;;;;;6.95;3.13;;;;;;;;;;5012464;28;20477;-83
2021/08/25 02:19:14;;;;;;;5.55;3.10;;;;;;;;;;5012387;28;20037;-82
2021/08/25 02:21:40;;;;;;;7.72;3.80;;;;;;;;;;5012049;28;20739;-83
2021/08/25 02:24:05;;;;;;;9.25;3.30;;;;;;;;;;5013489;28;20026;-82
2021/08/25 02:26:30;;;;;;;10.27;4.05;;;;;;;;;;5012438;28;20113;-82
2021/08/25 02:28:55;;;;;;;7.30;3.58;;;;;;;;;;5012949;28;20018;-82
2021/08/25 02:31:21;;;;;;;7.25;3.70;;;;;;;;;;5012082;28;20045;-82
2021/08/25 02:33:47;;;;;;;8.80;3.88;;;;;;;;;;5011461;28;20026;-82
2021/08/25 02:36:13;;;;;;;7.30;3.42;;;;;;;;;;5012653;28;20022;-83
2021/08/25 02:38:38;;;;;;;10.52;3.63;;;;;;;;;;5012919;28;20025;-82
2021/08/25 02:41:05;;;;;;;7.20;3.90;;;;;;;;;;5012515;28;20025;-83
2021/08/25 02:43:30;;;;;;;6.88;3.47;;;;;;;;;;5011788;28;20091;-83
2021/08/25 02:45:55;;;;;;;7.45;3.55;;;;;;;;;;5011520;28;20124;-83
2021/08/25 02:48:20;;;;;;;7.40;3.67;;;;;;;;;;5012339;28;20029;-83
2021/08/25 02:50:46;;;;;;;9.48;3.55;;;;;;;;;;5012290;28;20033;-83
2021/08/25 02:53:11;;;;;;;6.65;3.50;;;;;;;;;;5012407;28;20017;-83
2021/08/25 02:55:36;;;;;;;7.22;3.60;;;;;;;;;;5011736;28;20021;-83
2021/08/25 02:58:01;;;;;;;10.65;3.95;;;;;;;;;;5048349;28;20032;-82
2021/08/25 03:00:26;;;;;;;11.40;3.38;;;;;;;;;;5023212;28;20022;-82
2021/08/25 03:02:52;;;;;;;8.43;3.85;;;;;;;;;;5026839;28;20473;-82
2021/08/25 03:05:17;;;;;;;6.15;3.70;;;;;;;;;;5016696;28;20071;-82
2021/08/25 03:07:42;;;;;;;6.82;3.35;;;;;;;;;;5022793;28;20033;-83
2021/08/25 03:10:08;;;;;;;6.88;3.72;;;;;;;;;;5025901;28;20041;-83
2021/08/25 03:12:33;;;;;;;10.02;3.53;;;;;;;;;;5022981;28;20022;-82
2021/08/25 03:14:58;;;;;;;8.23;5.18;;;;;;;;;;5017018;28;20032;-83
2021/08/25 03:17:23;;;;;;;8.40;3.60;;;;;;;;;;5014317;28;20037;-83
2021/08/25 03:19:49;;;;;;;9.98;3.50;;;;;;;;;;5020335;28;20043;-83
2021/08/25 03:22:14;;;;;;;7.53;3.10;;;;;;;;;;5025219;28;20028;-83
2021/08/25 03:24:39;;;;;;;7.00;3.53;;;;;;;;;;5021975;28;20029;-82
2021/08/25 03:27:04;;;;;;;8.95;3.30;;;;;;;;;;5025317;28;20022;-82
2021/08/25 03:29:29;;;;;;;7.18;3.78;;;;;;;;;;5025479;28;20040;-83
2021/08/25 03:31:55;;;;;;;7.55;3.55;;;;;;;;;;5016039;28;20105;-82
2021/08/25 03:34:20;;;;;;;6.72;3.25;;;;;;;;;;5014078;28;20049;-83
2021/08/25 03:36:45;;;;;;;8.27;3.03;;;;;;;;;;5018796;28;20087;-82
2021/08/25 03:39:10;;;;;;;7.55;3.40;;;;;;;;;;5020133;28;20030;-82
2021/08/25 03:41:35;;;;;;;4.90;2.83;;;;;;;;;;5025769;28;20551;-82
2021/08/25 03:44:01;;;;;;;6.03;2.83;;;;;;;;;;5031360;28;20045;-82
2021/08/25 03:46:26;;;;;;;5.93;2.92;;;;;;;;;;5027442;28;20033;-82
2021/08/25 03:48:51;;;;;;;5.40;2.63;;;;;;;;;;5017360;28;20036;-83
2021/08/25 03:51:17;;;;;;;7.80;3.95;;;;;;;;;;5021395;28;20112;-82
2021/08/25 03:53:42;;;;;;;4.53;2.75;;;;;;;;;;5027671;28;20052;-82
2021/08/25 03:56:07;;;;;;;8.68;3.33;;;;;;;;;;5027888;28;20068;-83
2021/08/25 03:58:32;;;;;;;4.63;2.63;;;;;;;;;;5020379;28;20095;-82
2021/08/25 04:00:58;;;;;;;5.53;2.92;;;;;;;;;;5025294;28;20022;-82
2021/08/25 04:03:23;;;;;;;9.63;3.20;;;;;;;;;;5012126;28;20014;-83
2021/08/25 04:05:48;;;;;;;7.95;3.40;;;;;;;;;;5024776;28;20021;-82
2021/08/25 04:08:13;;;;;;;7.13;2.80;;;;;;;;;;5029334;28;20017;-82
2021/08/25 04:10:39;;;;;;;7.65;2.92;;;;;;;;;;5019761;28;20032;-82
2021/08/25 04:13:04;;;;;;;4.65;2.60;;;;;;;;;;5031291;28;20017;-82
2021/08/25 04:15:30;;;;;;;8.23;2.83;;;;;;;;;;5028439;28;20072;-82
2021/08/25 04:17:55;;;;;;;7.45;3.42;;;;;;;;;;5018833;28;20017;-83
2021/08/25 04:20:20;;;;;;;11.05;3.40;;;;;;;;;;5031324;28;20017;-82
2021/08/25 04:22:45;;;;;;;6.68;2.70;;;;;;;;;;5027171;28;20038;-83
2021/08/25 04:25:10;;;;;;;6.13;3.03;;;;;;;;;;5017162;28;20029;-82
2021/08/25 04:27:36;;;;;;;6.85;2.78;;;;;;;;;;5021875;28;20542;-83
2021/08/25 04:30:01;;;;;;;6.75;2.47;;;;;;;;;;5031164;28;20021;-82
2021/08/25 04:32:26;;;;;;;5.47;2.80;;;;;;;;;;5024667;28;20037;-83
2021/08/25 04:34:51;;;;;;;11.35;3.60;;;;;;;;;;5027438;28;20030;-83
2021/08/25 04:37:16;;;;;;;5.53;2.92;;;;;;;;;;5020798;28;20018;-82
2021/08/25 04:39:42;;;;;;;4.38;2.50;;;;;;;;;;5018037;28;20492;-82
2021/08/25 04:42:07;;;;;;;4.75;2.58;;;;;;;;;;5023979;28;20049;-82
2021/08/25 04:44:32;;;;;;;4.88;2.58;;;;;;;;;;5023471;28;20025;-82
2021/08/25 04:46:57;;;;;;;5.63;2.95;;;;;;;;;;5029082;28;20029;-83
2021/08/25 04:49:22;;;;;;;6.97;3.28;;;;;;;;;;5024613;28;20028;-83
2021/08/25 04:51:48;;;;;;;4.55;3.20;;;;;;;;;;5029403;28;20033;-82
2021/08/25 04:54:13;;;;;;;16.58;3.00;;;;;;;;;;5019614;28;20022;-83
2021/08/25 04:56:38;;;;;;;4.60;2.72;;;;;;;;;;5027787;28;20112;-82
2021/08/25 04:59:03;;;;;;;8.15;3.30;;;;;;;;;;5029555;28;20470;-82
2021/08/25 05:01:28;;;;;;;6.30;3.13;;;;;;;;;;5021957;28;20033;-82
2021/08/25 05:03:54;;;;;;;4.80;2.55;;;;;;;;;;5032218;28;20091;-82
2021/08/25 05:06:19;;;;;;;6.38;3.20;;;;;;;;;;5034113;28;20386;-82
2021/08/25 05:08:45;;;;;;;4.90;2.85;;;;;;;;;;5025288;28;20030;-82
2021/08/25 05:11:10;;;;;;;6.90;3.60;;;;;;;;;;5027859;28;20044;-82
2021/08/25 05:13:37;;;;;;;6.35;2.97;;;;;;;;;;5023178;28;20230;-82
2021/08/25 05:16:03;;;;;;;7.63;3.78;;;;;;;;;;5020858;28;20017;-82
2021/08/25 05:18:28;;;;;;;7.70;3.75;;;;;;;;;;5028193;28;20028;-82
2021/08/25 05:20:56;;;;;;;9.95;3.83;;;;;;;;;;5032419;28;20389;-82
2021/08/25 05:23:21;;;;;;;6.07;3.30;;;;;;;;;;5023220;28;20021;-82
2021/08/25 05:25:47;;;;;;;8.30;3.63;;;;;;;;;;5026536;28;20394;-82
2021/08/25 05:28:12;;;;;;;9.52;3.47;;;;;;;;;;5030464;28;20033;-82
2021/08/25 05:30:38;;;;;;;6.28;3.78;;;;;;;;;;5025126;28;20393;-82
2021/08/25 05:33:03;;;;;;;7.53;4.40;;;;;;;;;;5019832;28;20487;-82
2021/08/25 05:35:28;;;;;;;5.05;3.38;;;;;;;;;;5026041;28;20478;-82
2021/08/25 05:37:53;;;;;;;6.63;3.90;;;;;;;;;;5021010;28;20461;-82
2021/08/25 05:40:18;;;;;;;10.88;4.63;;;;;;;;;;5030948;28;20024;-82
2021/08/25 05:42:45;;;;;;;9.68;4.93;;;;;;;;;;5022371;28;20022;-82
2021/08/25 05:45:11;;;;;;;9.90;5.20;;;;;;;;;;5024473;28;20034;-83
2021/08/25 05:47:37;;;;;;;10.77;5.30;;;;;;;;;;5026003;28;20116;-83
2021/08/25 05:50:02;;;;;;;10.00;5.28;;;;;;;;;;5030136;28;20018;-83
2021/08/25 05:52:27;;;;;;;9.05;4.85;;;;;;;;;;5025081;28;20388;-83
2021/08/25 05:54:53;;;;;;;9.52;5.10;;;;;;;;;;5032943;28;20025;-82
2021/08/25 05:57:18;;;;;;;11.90;5.88;;;;;;;;;;5018475;28;20431;-82
2021/08/25 05:59:43;;;;;;;9.05;6.07;;;;;;;;;;5023262;28;20067;-82
2021/08/25 06:02:08;;;;;;;10.38;5.82;;;;;;;;;;5031408;28;20425;-83
2021/08/25 06:04:33;;;;;;;15.65;6.30;;;;;;;;;;5027460;28;20028;-83
2021/08/25 06:06:59;;;;;;;18.63;5.90;;;;;;;;;;5017781;28;20025;-82
2021/08/25 06:09:24;;;;;;;13.73;5.97;;;;;;;;;;5023323;28;20429;-82
2021/08/25 06:11:49;;;;;;;10.13;6.03;;;;;;;;;;5024865;28;20021;-83
2021/08/25 06:14:14;;;;;;;11.50;6.90;;;;;;;;;;5023885;28;20022;-82
2021/08/25 06:16:42;;;;;;;10.93;6.43;;;;;;;;;;5031124;28;20362;-82
2021/08/25 06:19:07;;;;;;;11.25;6.80;;;;;;;;;;5018688;28;20056;-82
2021/08/25 06:21:33;;;;;;;12.93;6.82;;;;;;;;;;5023558;28;20413;-83
2021/08/25 06:23:58;;;;;;;12.25;6.32;;;;;;;;;;5027800;28;20075;-83
2021/08/25 06:26:23;;;;;;;13.50;7.30;;;;;;;;;;5019889;28;20488;-82
2021/08/25 06:28:48;;;;;;;11.20;6.47;;;;;;;;;;5021384;28;20025;-82
2021/08/25 06:31:13;;;;;;;10.73;6.00;;;;;;;;;;5028929;28;20469;-82
2021/08/25 06:33:39;;;;;;;10.80;6.63;;;;;;;;;;5024102;28;20025;-82
2021/08/25 06:36:04;;;;;;;13.82;6.82;;;;;;;;;;5032745;28;20032;-83
2021/08/25 06:38:29;;;;;;;12.23;7.43;;;;;;;;;;5025835;28;20045;-82
2021/08/25 06:40:54;;;;;;;13.95;7.10;;;;;;;;;;5017070;28;20095;-82
2021/08/25 06:43:20;;;;;;;11.20;6.88;;;;;;;;;;5024028;28;20021;-83
2021/08/25 06:45:45;;;;;;;14.48;7.38;;;;;;;;;;5032030;28;20025;-82
2021/08/25 06:48:10;;;;;;;11.55;6.53;;;;;;;;;;5021045;28;20026;-82
2021/08/25 06:50:35;;;;;;;15.15;7.72;;;;;;;;;;5025752;28;20025;-83
2021/08/25 06:53:01;;;;;;;11.60;7.13;;;;;;;;;;5032263;28;20021;-83
2021/08/25 06:55:26;;;;;;;15.07;7.07;;;;;;;;;;5020483;28;20029;-83
2021/08/25 06:57:51;;;;;;;15.25;6.25;;;;;;;;;;5019952;28;20462;-83
2021/08/25 07:00:18;;;;;;;14.02;7.28;;;;;;;;;;5029094;28;20022;-83
2021/08/25 07:02:43;;;;;;;17.67;7.70;;;;;;;;;;5028979;28;20112;-83
2021/08/25 07:05:09;;;;;;;15.52;7.90;;;;;;;;;;5025566;28;20105;-82
2021/08/25 07:07:34;;;;;;;13.45;6.10;;;;;;;;;;5029570;28;20112;-83
2021/08/25 07:10:00;;;;;;;13.07;5.90;;;;;;;;;;5024474;28;20025;-82
2021/08/25 07:12:25;;;;;;;14.02;6.57;;;;;;;;;;5019554;28;20028;-83
2021/08/25 07:14:51;;;;;;;15.95;7.28;;;;;;;;;;5031966;28;20028;-82
2021/08/25 07:17:16;;;;;;;11.95;6.38;;;;;;;;;;5023153;28;20025;-83
2021/08/25 07:19:42;;;;;;;15.48;7.18;;;;;;;;;;5022020;28;20092;-83
2021/08/25 07:22:08;;;;;;;14.15;6.38;;;;;;;;;;5021032;28;20046;-83
2021/08/25 07:24:33;;;;;;;13.35;6.28;;;;;;;;;;5020789;28;20052;-82
2021/08/25 07:26:58;;;;;;;12.88;5.68;;;;;;;;;;5016080;28;20025;-83
2021/08/25 07:29:23;;;;;;;13.07;6.40;;;;;;;;;;5017717;28;20018;-82
2021/08/25 07:31:49;;;;;;;15.20;8.48;;;;;;;;;;5017154;28;20117;-83
2021/08/25 07:34:14;;;;;;;14.82;8.63;;;;;;;;;;5021092;28;20128;-83
2021/08/25 07:36:39;;;;;;;16.00;8.57;;;;;;;;;;5025554;28;20032;-82
2021/08/25 07:39:05;;;;;;;18.35;9.30;;;;;;;;;;5012803;28;20108;-82
2021/08/25 07:41:30;;;;;;;13.75;7.10;;;;;;;;;;5016823;28;20064;-83
2021/08/25 07:43:55;;;;;;;17.40;9.55;;;;;;;;;;5020898;28;20061;-82
2021/08/25 07:46:20;;;;;;;20.20;8.88;;;;;;;;;;5020511;28;20077;-83
2021/08/25 07:48:45;;;;;;;17.70;9.50;;;;;;;;;;5022572;28;20140;-83
2021/08/25 07:51:18;;;;;;;13.20;6.22;;;;;;;;;;5027826;28;20635;-83
2021/08/25 07:53:43;;;;;;;16.92;7.45;;;;;;;;;;5020930;28;20014;-83
2021/08/25 07:56:09;;;;;;;16.30;7.60;;;;;;;;;;5023616;28;20117;-83
2021/08/25 07:58:34;;;;;;;15.13;7.55;;;;;;;;;;5017805;28;20017;-83
2021/08/25 08:00:59;;;;;;;15.93;7.63;;;;;;;;;;5021476;28;20458;-84
2021/08/25 08:03:24;;;;;;;13.73;6.93;;;;;;;;;;5021650;28;20022;-83
2021/08/25 08:05:49;;;;;;;13.55;6.68;;;;;;;;;;5026176;28;20021;-83
2021/08/25 08:08:15;;;;;;;11.93;6.40;;;;;;;;;;5032497;28;20027;-83
2021/08/25 08:10:40;;;;;;;15.05;7.13;;;;;;;;;;5020880;28;20365;-83
2021/08/25 08:13:05;;;;;;;14.52;7.15;;;;;;;;;;5018516;28;20033;-84
2021/08/25 08:15:31;;;;;;;18.63;7.03;;;;;;;;;;5015611;28;20018;-83
2021/08/25 08:17:56;;;;;;;15.18;7.20;;;;;;;;;;5023135;28;20477;-83
2021/08/25 08:20:22;;;;;;;12.68;6.20;;;;;;;;;;5024789;28;20416;-83
2021/08/25 08:22:48;;;;;;;15.82;5.88;;;;;;;;;;5014841;28;20723;-83
2021/08/25 08:25:14;;;;;;;12.38;5.07;;;;;;;;;;5010889;28;20500;-83
2021/08/25 08:27:39;;;;;;;15.63;5.60;;;;;;;;;;5019349;28;20076;-83
2021/08/25 08:30:05;;;;;;;11.75;5.00;;;;;;;;;;5009790;28;20409;-83
2021/08/25 08:32:30;;;;;;;11.48;4.65;;;;;;;;;;5015401;28;20014;-83
2021/08/25 08:34:55;;;;;;;13.93;5.15;;;;;;;;;;5010281;28;20068;-83
2021/08/25 08:37:20;;;;;;;14.73;4.63;;;;;;;;;;5046942;28;20018;-83
2021/08/25 08:39:45;;;;;;;8.40;4.05;;;;;;;;;;5019210;28;20763;-83
2021/08/25 08:42:43;;;;;;;8.35;4.60;;;;;;;;;;5013942;28;20018;-83
2021/08/25 08:45:10;;;;;;;9.75;4.18;;;;;;;;;;4986793;28;20046;-83
2021/08/25 08:47:36;;;;;;;10.25;4.18;;;;;;;;;;5012387;28;20026;-83
2021/08/25 08:50:01;;;;;;;10.07;3.72;;;;;;;;;;5015619;28;20482;-83
2021/08/25 08:52:27;;;;;;;10.07;3.55;;;;;;;;;;5015326;28;20026;-82
2021/08/25 08:54:54;;;;;;;14.60;4.22;;;;;;;;;;5018166;28;20026;-83
2021/08/25 08:57:19;;;;;;;8.55;3.25;;;;;;;;;;5012617;28;20013;-83
2021/08/25 08:59:45;;;;;;;10.15;3.88;;;;;;;;;;5010637;28;20024;-83
2021/08/25 09:02:10;;;;;;;8.90;3.33;;;;;;;;;;5012417;28;20030;-83
2021/08/25 09:04:40;;;;;;;9.05;3.28;;;;;;;;;;5040363;28;20028;-83
2021/08/25 09:07:15;;;;;;;9.27;3.25;;;;;;;;;;5015900;28;20064;-82
2021/08/25 09:09:51;;;;;;;7.50;3.08;;;;;;;;;;5014847;28;20083;-82
2021/08/25 09:12:16;;;;;;;8.25;3.13;;;;;;;;;;5014837;28;20070;-82
2021/08/25 09:14:41;;;;;;;11.93;3.78;;;;;;;;;;5017705;28;20443;-82
2021/08/25 09:17:07;;;;;;;10.35;4.25;;;;;;;;;;5018020;28;20456;-83
2021/08/25 09:19:35;;;;;;;11.13;3.88;;;;;;;;;;5020633;28;20063;-82
2021/08/25 09:22:02;;;;;;;12.48;3.83;;;;;;;;;;5014988;28;20507;-82
2021/08/25 09:24:40;;;;;;;14.70;4.20;;;;;;;;;;5018416;28;20036;-82
2021/08/25 09:27:16;;;;;;;13.30;4.65;;;;;;;;;;5011557;28;20014;-82
2021/08/25 09:29:43;;;;;;;10.40;3.95;;;;;;;;;;5009204;28;20022;-82
2021/08/25 09:32:18;;;;;;;9.18;3.20;;;;;;;;;;5014244;28;20029;-82
2021/08/25 09:34:44;;;;;;;5.53;2.47;;;;;;;;;;5012548;28;20073;-81
2021/08/25 09:37:10;;;;;;;5.00;2.38;;;;;;;;;;5012102;28;20014;-83
2021/08/25 09:39:46;;;;;;;8.02;2.67;;;;;;;;;;5015553;28;20049;-82
2021/08/25 09:42:12;;;;;;;7.28;2.70;;;;;;;;;;5015284;28;20140;-82
2021/08/25 09:44:37;;;;;;;9.18;2.88;;;;;;;;;;5020965;28;20116;-83
2021/08/25 09:47:02;;;;;;;8.43;2.60;;;;;;;;;;5012856;28;20421;-82
2021/08/25 09:49:28;;;;;;;11.70;3.05;;;;;;;;;;5012981;28;20053;-83
2021/08/25 09:51:54;;;;;;;5.70;2.63;;;;;;;;;;5013095;28;20044;-82
2021/08/25 09:54:20;;;;;;;5.25;2.13;;;;;;;;;;5013696;28;20043;-82
2021/08/25 09:56:45;;;;;;;7.60;2.50;;;;;;;;;;5012372;28;20513;-82
2021/08/25 09:59:12;;;;;;;9.35;2.58;;;;;;;;;;5010937;28;20075;-82
2021/08/25 10:01:37;;;;;;;9.05;2.67;;;;;;;;;;5012564;28;20029;-82
2021/08/25 10:04:03;;;;;;;6.15;2.55;;;;;;;;;;5012232;28;20108;-83
2021/08/25 10:06:28;;;;;;;6.15;2.50;;;;;;;;;;5012810;28;20076;-82
2021/08/25 10:08:54;;;;;;;5.97;2.28;;;;;;;;;;5019664;28;20481;-82
2021/08/25 10:11:30;;;;;;;5.95;2.55;;;;;;;;;;5029479;28;20026;-83
2021/08/25 10:13:56;;;;;;;5.35;2.17;;;;;;;;;;5021112;28;20022;-83
2021/08/25 10:16:40;;;;;;;6.13;2.90;;;;;;;;;;5016246;28;20109;-83
2021/08/25 10:19:24;;;;;;;6.65;2.25;;;;;;;;;;5008265;28;20021;-82
2021/08/25 10:21:50;;;;;;;5.13;1.90;;;;;;;;;;5029462;28;20033;-83
2021/08/25 10:24:15;;;;;;;5.88;2.33;;;;;;;;;;5017722;28;20025;-83
2021/08/25 10:26:55;;;;;;;6.88;2.13;;;;;;;;;;5015619;28;20026;-83
2021/08/25 10:29:21;;;;;;;10.23;2.40;;;;;;;;;;5017868;28;20029;-82
2021/08/25 10:31:49;;;;;;;5.30;2.35;;;;;;;;;;5011507;28;20152;-83
2021/08/25 10:34:20;;;;;;;6.70;2.00;;;;;;;;;;5011278;28;20029;-83
2021/08/25 10:36:46;;;;;;;7.13;2.22;;;;;;;;;;5012409;28;20153;-83
2021/08/25 10:39:30;;;;;;;4.80;2.17;;;;;;;;;;5013876;28;20137;-83
2021/08/25 10:41:56;;;;;;;9.93;2.33;;;;;;;;;;5012160;28;20037;-82
2021/08/25 10:44:36;;;;;;;7.20;2.47;;;;;;;;;;5014003;28;20026;-83
2021/08/25 10:47:03;;;;;;;5.95;2.33;;;;;;;;;;5038347;28;20174;-83
2021/08/25 10:49:39;;;;;;;5.75;2.20;;;;;;;;;;5044828;28;20030;-83
2021/08/25 10:52:13;;;;;;;7.50;2.20;;;;;;;;;;5010919;28;20037;-83
2021/08/25 10:54:38;;;;;;;5.35;2.30;;;;;;;;;;5044540;28;20026;-83
2021/08/25 10:57:08;;;;;;;5.72;2.08;;;;;;;;;;5010915;28;20032;-82
2021/08/25 10:59:33;;;;;;;7.53;2.33;;;;;;;;;;5042967;28;20487;-82
2021/08/25 11:01:59;;;;;;;5.80;2.47;;;;;;;;;;5013769;28;20041;-82
2021/08/25 11:04:24;;;;;;;9.60;2.63;;;;;;;;;;5012468;28;20029;-82
2021/08/25 11:06:53;;;;;;;8.40;2.60;;;;;;;;;;5013545;28;20041;-82
2021/08/25 11:09:18;;;;;;;4.75;2.20;;;;;;;;;;5022042;28;20057;-82
2021/08/25 11:11:48;;;;;;;6.93;2.22;;;;;;;;;;5016683;28;20064;-82
2021/08/25 11:14:17;;;;;;;4.72;2.10;;;;;;;;;;5016699;28;20521;-83
2021/08/25 11:16:42;;;;;;;5.57;2.22;;;;;;;;;;5016103;28;20018;-82
2021/08/25 11:19:18;;;;;;;6.22;2.80;;;;;;;;;;5018813;28;20355;-82
2021/08/25 11:21:43;;;;;;;5.35;2.00;;;;;;;;;;5051382;28;20034;-82
2021/08/25 11:24:08;;;;;;;6.15;2.03;;;;;;;;;;5012699;28;20491;-82
2021/08/25 11:26:34;;;;;;;7.78;2.35;;;;;;;;;;5012947;28;20038;-82
2021/08/25 11:28:59;;;;;;;8.80;2.25;;;;;;;;;;5016405;28;20114;-82
2021/08/25 11:31:27;;;;;;;5.85;2.10;;;;;;;;;;5010526;28;20393;-82
2021/08/25 11:33:53;;;;;;;5.68;2.47;;;;;;;;;;5015990;28;20029;-82
2021/08/25 11:36:19;;;;;;;8.52;2.33;;;;;;;;;;5017720;28;20396;-82
2021/08/25 11:38:44;;;;;;;4.22;2.20;;;;;;;;;;5012621;28;20030;-82
2021/08/25 11:41:09;;;;;;;5.18;2.00;;;;;;;;;;5011363;28;20022;-82
2021/08/25 11:43:45;;;;;;;6.63;2.53;;;;;;;;;;5015010;28;20022;-82
2021/08/25 11:46:10;;;;;;;8.25;1.98;;;;;;;;;;5016639;28;20035;-82
2021/08/25 11:48:35;;;;;;;4.95;2.30;;;;;;;;;;5011178;28;20394;-82
2021/08/25 11:51:01;;;;;;;6.07;2.30;;;;;;;;;;5043368;28;20466;-82
2021/08/25 11:53:27;;;;;;;6.28;2.10;;;;;;;;;;5010479;28;20018;-82
2021/08/25 11:55:54;;;;;;;5.22;2.25;;;;;;;;;;5012147;28;20017;-82
2021/08/25 11:58:39;;;;;;;7.65;2.22;;;;;;;;;;5009793;28;20032;-82
2021/08/25 12:01:04;;;;;;;10.35;2.97;;;;;;;;;;5021013;28;20106;-82
2021/08/25 12:03:40;;;;;;;6.72;2.63;;;;;;;;;;5011668;28;20112;-82
2021/08/25 12:06:05;;;;;;;5.80;2.55;;;;;;;;;;5020228;28;20021;-82
2021/08/25 12:08:41;;;;;;;5.88;2.47;;;;;;;;;;5025450;28;20095;-82
2021/08/25 12:11:07;;;;;;;7.70;2.58;;;;;;;;;;5024048;28;20108;-82
2021/08/25 12:13:33;;;;;;;7.07;2.42;;;;;;;;;;5021211;28;20105;-82
2021/08/25 12:15:59;;;;;;;5.18;2.30;;;;;;;;;;5019166;28;20025;-82
2021/08/25 12:18:25;;;;;;;6.22;2.20;;;;;;;;;;5024880;28;20030;-82
2021/08/25 12:20:55;;;;;;;10.57;2.47;;;;;;;;;;5018412;28;20512;-82
2021/08/25 12:23:21;;;;;;;6.03;2.55;;;;;;;;;;5023834;28;20083;-82
2021/08/25 12:25:51;;;;;;;5.75;2.38;;;;;;;;;;5042448;28;20117;-82
2021/08/25 12:28:28;;;;;;;7.38;2.83;;;;;;;;;;5018630;28;20037;-82
2021/08/25 12:30:53;;;;;;;9.55;2.97;;;;;;;;;;5017790;28;20026;-82
2021/08/25 12:33:28;;;;;;;6.78;2.53;;;;;;;;;;5019734;28;20405;-82
2021/08/25 12:35:53;;;;;;;6.07;2.42;;;;;;;;;;5015689;28;20029;-82
2021/08/25 12:38:28;;;;;;;7.05;2.85;;;;;;;;;;5013680;28;20381;-82
2021/08/25 12:40:53;;;;;;;5.10;2.50;;;;;;;;;;5017403;28;20022;-82
2021/08/25 12:43:19;;;;;;;7.45;2.58;;;;;;;;;;5017491;28;20028;-82
2021/08/25 12:45:44;;;;;;;8.88;2.80;;;;;;;;;;5015080;28;20030;-82
2021/08/25 12:48:09;;;;;;;7.53;2.60;;;;;;;;;;5017222;28;20065;-83
2021/08/25 12:50:34;;;;;;;6.95;2.70;;;;;;;;;;5016741;28;20359;-82
2021/08/25 12:53:00;;;;;;;5.95;2.53;;;;;;;;;;5016239;28;20469;-83
2021/08/25 12:55:25;;;;;;;6.15;2.33;;;;;;;;;;5015775;28;20018;-83
2021/08/25 12:57:50;;;;;;;9.43;3.13;;;;;;;;;;5014558;28;20053;-83
2021/08/25 13:00:16;;;;;;;7.28;2.40;;;;;;;;;;5014903;28;20025;-83
2021/08/25 13:02:41;;;;;;;5.53;2.40;;;;;;;;;;5015503;28;20037;-83
2021/08/25 13:05:09;;;;;;;6.13;2.42;;;;;;;;;;5015169;28;20384;-83
2021/08/25 13:07:34;;;;;;;8.30;2.78;;;;;;;;;;5033133;28;20472;-83
2021/08/25 13:09:59;;;;;;;5.85;2.50;;;;;;;;;;5034432;28;20021;-83
2021/08/25 13:12:24;;;;;;;7.85;2.88;;;;;;;;;;5029241;28;20484;-83
2021/08/25 13:14:50;;;;;;;7.03;2.60;;;;;;;;;;5025110;28;20026;-83
2021/08/25 13:17:15;;;;;;;6.75;2.53;;;;;;;;;;5027305;28;20013;-83
2021/08/25 13:19:40;;;;;;;7.70;2.92;;;;;;;;;;5034184;28;20017;-83
2021/08/25 13:22:05;;;;;;;6.35;2.92;;;;;;;;;;5034277;28;20025;-82
2021/08/25 13:24:31;;;;;;;6.57;2.83;;;;;;;;;;5020068;28;20591;-82
2021/08/25 13:26:56;;;;;;;6.10;2.70;;;;;;;;;;5034138;28;20033;-83
2021/08/25 13:29:21;;;;;;;9.77;2.97;;;;;;;;;;5034730;28;20055;-82
2021/08/25 13:31:46;;;;;;;5.43;2.22;;;;;;;;;;5034975;28;20104;-83
2021/08/25 13:34:11;;;;;;;6.38;2.58;;;;;;;;;;5031700;28;20048;-83
2021/08/25 13:36:37;;;;;;;6.93;2.47;;;;;;;;;;5032235;28;20017;-83
2021/08/25 13:39:02;;;;;;;5.03;2.28;;;;;;;;;;5033964;28;20045;-83
2021/08/25 13:41:28;;;;;;;5.68;2.67;;;;;;;;;;5033638;28;20108;-83
2021/08/25 13:43:53;;;;;;;6.03;2.80;;;;;;;;;;5033736;28;20440;-83
2021/08/25 13:46:18;;;;;;;6.97;2.70;;;;;;;;;;5024877;28;20081;-83
2021/08/25 13:48:43;;;;;;;6.82;2.65;;;;;;;;;;5033642;28;20013;-82
2021/08/25 13:51:09;;;;;;;6.90;2.40;;;;;;;;;;5033496;28;20025;-83
2021/08/25 13:53:34;;;;;;;7.00;2.53;;;;;;;;;;5019222;28;20021;-83
2021/08/25 13:56:00;;;;;;;6.85;2.80;;;;;;;;;;5024964;28;20021;-83
2021/08/25 13:58:25;;;;;;;7.20;2.50;;;;;;;;;;5033267;28;20018;-82
2021/08/25 14:00:51;;;;;;;7.38;2.60;;;;;;;;;;5031181;28;20017;-83
2021/08/25 14:03:16;;;;;;;4.43;2.20;;;;;;;;;;5028519;28;20044;-83
2021/08/25 14:05:41;;;;;;;7.38;2.95;;;;;;;;;;5025635;28;20032;-82
2021/08/25 14:08:08;;;;;;;6.50;2.30;;;;;;;;;;5033382;28;20021;-82
2021/08/25 14:10:33;;;;;;;6.95;2.58;;;;;;;;;;5033327;28;20028;-83
2021/08/25 14:12:58;;;;;;;6.15;2.20;;;;;;;;;;5029525;28;20109;-83
2021/08/25 14:15:23;;;;;;;6.75;2.15;;;;;;;;;;5022572;28;20052;-83
2021/08/25 14:17:49;;;;;;;8.07;3.25;;;;;;;;;;5030750;28;20093;-83
2021/08/25 14:20:14;;;;;;;4.97;2.25;;;;;;;;;;5034167;28;20030;-83
2021/08/25 14:22:40;;;;;;;7.00;2.38;;;;;;;;;;5031301;28;20477;-83
2021/08/25 14:25:05;;;;;;;6.50;2.60;;;;;;;;;;5020675;28;20100;-83
2021/08/25 14:27:30;;;;;;;6.55;2.50;;;;;;;;;;5031850;28;20021;-83
2021/08/25 14:29:56;;;;;;;6.50;2.30;;;;;;;;;;5025728;28;20520;-82
2021/08/25 14:32:21;;;;;;;6.80;2.42;;;;;;;;;;5032705;28;20671;-83
2021/08/25 14:34:46;;;;;;;6.93;2.63;;;;;;;;;;5030747;28;20116;-83